Ana Sayfa
METAR-TAF:

METAR-TAF

Havaalanları :

Aydın Çıldır Havalimanı

Aydın, Türkiye

Enlem: 37-48-54N, Boylam: 27-53-21E, yükseklik: 31 m

Güncel hava durumu gözlemi

Rapor saat 06:50 UTC de 32 dakika önce yapıldı.
Rüzgar doğudan 4 kt, kuzeydoğu ve güneydoğu arasında değişken
Sıcaklık 9°C
Nem 81%
Basınç 1019 hPa
Görüş mesafesi: 5000 m
Pus

METAR: LTBD 250650Z 08004KT 040V140 5000 BR NSC 09/06 Q1019

Saat: 10:22 (07:22 UTC)

Tahmin

Rapor saat 05:06 UTC de 2 saat ve 16 dakika önce yapıldı.
Ayın 25'si saat 06 UTC'den ayın 25'si saat 15 UTC'ye kadar geçerli Tahmin
Rüzgar değişken yönden 2 kt
Görüş mesafesi: 3000 m
Pus
Dönüşüyor
ayın 25'si saat 07 UTC'den ayın 25'si saat 09 UTC'ye kadar
Görüş mesafesi 10 km veya daha fazla
1500 m altında bulut yok ve kümülonimbus yok

TAF: LTBD 250506Z 2506/2515 VRB02KT 3000 BR NSC BECMG 2507/2509 CAVOK

4.000'den fazla havaalanı için hava durumu gözlemleri ve tahminleri (METAR ve TAF raporları).

Kullanılabilir istasyonlar harita üzerinde sarı ve kırmızı noktalarla gösterilir.

İstasyonun adını görmek için fareyi noktanın üzerinde gezdirin.

Sonrasında hava gözlem ve tahminlerini görmek için tıklayın.

Haritayı değiştirmek için: yaklaştırmak için siyah artı işaretli yeşil düğmeye ve uzaklaştırmak için de eksi işaretli düğmeye hızla tıklayın; bitişik haritalar için yeşil okları kullanın.


METAR-TAF: